createdAt,value
2023-01-10T00:00:28.492Z,92.62
2023-01-10T00:02:56.581Z,93.19
2023-01-10T00:05:23.329Z,92.72
2023-01-10T00:07:49.973Z,92.49
2023-01-10T00:10:16.866Z,92.47
2023-01-10T00:12:43.454Z,91.53
2023-01-10T00:15:10.904Z,90.64
2023-01-10T00:17:37.534Z,90.45
2023-01-10T00:20:06.599Z,90.31
2023-01-10T00:22:33.207Z,90.75
2023-01-10T00:24:59.883Z,90.77
2023-01-10T00:27:26.471Z,90.98
2023-01-10T00:29:53.356Z,92.80
2023-01-10T00:32:20.715Z,92.40
2023-01-10T00:34:47.539Z,92.07
2023-01-10T00:37:15.602Z,92.81
2023-01-10T00:39:42.266Z,92.88
2023-01-10T00:42:10.035Z,93.15
2023-01-10T00:44:39.532Z,92.80
2023-01-10T00:47:06.753Z,92.35
2023-01-10T00:49:33.395Z,92.38
2023-01-10T00:52:00.116Z,92.48
2023-01-10T00:54:28.235Z,93.11
2023-01-10T00:56:54.943Z,93.39
2023-01-10T00:59:21.872Z,93.24
2023-01-10T01:01:48.752Z,93.38
2023-01-10T01:04:15.758Z,94.36
2023-01-10T01:06:43.990Z,94.80
2023-01-10T01:09:10.667Z,94.56
2023-01-10T01:11:38.755Z,95.87
2023-01-10T01:14:07.456Z,95.96
2023-01-10T01:16:34.139Z,95.32
2023-01-10T01:19:00.767Z,94.63
2023-01-10T01:21:27.392Z,94.02
2023-01-10T01:23:54.552Z,93.07
2023-01-10T01:26:21.163Z,91.61
2023-01-10T01:28:49.281Z,91.59
2023-01-10T01:31:16.075Z,92.04
2023-01-10T01:33:42.911Z,91.60
2023-01-10T01:36:11.085Z,90.81
2023-01-10T01:38:37.990Z,90.95
2023-01-10T01:41:07.853Z,90.19
2023-01-10T01:43:59.673Z,91.13
2023-01-10T01:46:26.757Z,91.95
2023-01-10T01:48:55.581Z,91.41
2023-01-10T01:51:26.922Z,91.21
2023-01-10T01:53:57.970Z,90.34
2023-01-10T01:56:29.780Z,89.91
2023-01-10T01:59:07.209Z,90.79
2023-01-10T02:01:36.034Z,91.08
2023-01-10T02:04:10.517Z,91.48
2023-01-10T02:06:38.035Z,90.57
2023-01-10T02:09:16.651Z,89.06
2023-01-10T02:11:43.309Z,88.76
2023-01-10T02:14:14.033Z,89.22
2023-01-10T02:16:40.809Z,89.02
2023-01-10T02:19:16.362Z,89.22
2023-01-10T02:22:09.174Z,89.52
2023-01-10T02:25:03.210Z,90.10
2023-01-10T02:27:41.178Z,89.65
2023-01-10T02:30:41.697Z,88.04
2023-01-10T02:33:19.184Z,87.42
2023-01-10T02:36:01.558Z,86.95
2023-01-10T02:38:36.537Z,86.70
2023-01-10T02:41:12.643Z,86.22
2023-01-10T02:43:45.495Z,85.96
2023-01-10T02:46:16.913Z,84.60
2023-01-10T02:48:45.058Z,83.93
2023-01-10T02:51:18.848Z,84.23
2023-01-10T02:53:49.309Z,83.66
2023-01-10T02:56:40.351Z,83.21
2023-01-10T02:59:32.975Z,82.78
2023-01-10T03:02:11.052Z,83.19
2023-01-10T03:04:51.407Z,83.81
2023-01-10T03:07:24.182Z,83.20
2023-01-10T03:09:56.155Z,83.04
2023-01-10T03:12:31.571Z,83.35
2023-01-10T03:15:00.696Z,83.61
2023-01-10T03:17:30.271Z,83.67
2023-01-10T03:20:02.423Z,83.47
2023-01-10T03:22:31.263Z,82.61
2023-01-10T03:25:01.034Z,82.64
2023-01-10T03:27:33.355Z,83.71
2023-01-10T03:30:06.498Z,82.30
2023-01-10T03:32:34.199Z,82.07
2023-01-10T03:35:03.437Z,81.13
2023-01-10T03:37:37.182Z,80.58
2023-01-10T03:40:09.387Z,79.61
2023-01-10T03:42:47.582Z,79.79
2023-01-10T03:45:15.695Z,79.59
2023-01-10T03:47:46.740Z,78.81
2023-01-10T03:50:19.904Z,78.62
2023-01-10T03:52:46.588Z,78.42
2023-01-10T03:55:15.678Z,78.31
2023-01-10T03:57:42.673Z,78.16
2023-01-10T04:00:10.627Z,77.99
2023-01-10T04:02:37.426Z,78.49
2023-01-10T04:05:08.012Z,79.42
2023-01-10T04:07:36.099Z,79.51
2023-01-10T04:10:02.982Z,79.47
2023-01-10T04:12:29.602Z,79.68
2023-01-10T04:14:56.326Z,79.65
2023-01-10T04:17:22.999Z,79.48
2023-01-10T04:19:50.225Z,79.03
2023-01-10T04:22:16.873Z,78.73
2023-01-10T04:24:44.937Z,78.88
2023-01-10T04:27:14.407Z,77.93
2023-01-10T04:29:41.094Z,77.49
2023-01-10T04:32:07.830Z,77.60
2023-01-10T04:34:34.535Z,76.89
2023-01-10T04:37:01.198Z,76.65
2023-01-10T04:39:27.894Z,76.26
2023-01-10T04:41:55.954Z,76.88
2023-01-10T04:44:22.697Z,76.29
2023-01-10T04:46:49.345Z,75.55
2023-01-10T04:49:16.413Z,76.36
2023-01-10T04:51:43.064Z,75.63
2023-01-10T04:54:09.753Z,76.35
2023-01-10T04:56:36.442Z,76.21
2023-01-10T04:59:04.526Z,76.15
2023-01-10T05:01:31.270Z,76.05
2023-01-10T05:03:58.090Z,76.65
2023-01-10T05:06:25.047Z,77.24
2023-01-10T05:08:51.728Z,76.78
2023-01-10T05:11:18.436Z,77.60
2023-01-10T05:13:47.141Z,77.51
2023-01-10T05:16:16.428Z,81.48
2023-01-10T05:18:46.041Z,82.05
2023-01-10T05:21:13.691Z,83.95
2023-01-10T05:23:40.894Z,85.11
2023-01-10T05:26:09.044Z,86.79
2023-01-10T05:28:35.714Z,87.87
2023-01-10T05:31:02.792Z,88.67
2023-01-10T05:33:30.825Z,88.92
2023-01-10T05:35:59.327Z,90.27
2023-01-10T05:38:26.027Z,89.26
2023-01-10T05:40:55.463Z,89.56
2023-01-10T05:43:22.272Z,89.69
2023-01-10T05:45:49.082Z,90.91
2023-01-10T05:48:15.778Z,91.18
2023-01-10T05:50:43.908Z,91.44
2023-01-10T05:53:10.834Z,92.36
2023-01-10T05:55:40.457Z,93.62
2023-01-10T05:58:07.144Z,94.98
2023-01-10T06:00:33.831Z,95.66
2023-01-10T06:03:00.602Z,96.69
2023-01-10T06:05:27.275Z,96.87
2023-01-10T06:07:55.297Z,98.67
2023-01-10T06:10:21.940Z,99.11
2023-01-10T06:12:48.636Z,100.00
2023-01-10T06:15:15.719Z,100.00
2023-01-10T06:17:42.387Z,100.00
2023-01-10T06:20:10.461Z,100.00
2023-01-10T06:22:37.121Z,100.00
2023-01-10T06:25:06.181Z,100.00
2023-01-10T06:27:32.936Z,100.00
2023-01-10T06:29:59.587Z,100.00
2023-01-10T06:32:26.273Z,100.00
2023-01-10T06:34:53.103Z,100.00
2023-01-10T06:37:20.327Z,100.00
2023-01-10T06:39:47.115Z,100.00
2023-01-10T06:42:15.210Z,100.00
2023-01-10T06:44:41.875Z,100.00
2023-01-10T06:47:08.533Z,100.00
2023-01-10T06:49:35.152Z,100.00
2023-01-10T06:52:01.755Z,100.00
2023-01-10T06:54:28.469Z,100.00
2023-01-10T06:56:55.199Z,100.00
2023-01-10T06:59:23.245Z,100.00
2023-01-10T07:01:50.308Z,100.00
2023-01-10T07:04:17.033Z,100.00
2023-01-10T07:06:43.714Z,100.00
2023-01-10T07:09:10.396Z,100.00
2023-01-10T07:11:37.153Z,100.00
2023-01-10T07:14:04.055Z,100.00
2023-01-10T07:16:32.179Z,100.00
2023-01-10T07:18:59.748Z,100.00
2023-01-10T07:21:26.695Z,100.00
2023-01-10T07:23:53.401Z,100.00
2023-01-10T07:26:20.211Z,100.00
2023-01-10T07:28:49.194Z,100.00
2023-01-10T07:31:16.333Z,100.00
2023-01-10T07:33:44.506Z,100.00
2023-01-10T07:36:11.242Z,100.00
2023-01-10T07:38:38.716Z,100.00
2023-01-10T07:41:05.807Z,100.00
2023-01-10T07:43:32.975Z,100.00
2023-01-10T07:45:59.907Z,100.00
2023-01-10T07:48:26.646Z,100.00
2023-01-10T07:50:57.787Z,100.00
2023-01-10T07:53:25.264Z,100.00
2023-01-10T07:55:51.919Z,100.00
2023-01-10T07:58:19.322Z,100.00
2023-01-10T08:00:46.549Z,100.00
2023-01-10T08:03:13.541Z,100.00
2023-01-10T08:05:40.950Z,100.00
2023-01-10T08:08:10.800Z,100.00
2023-01-10T08:10:39.044Z,100.00
2023-01-10T08:13:17.774Z,100.00
2023-01-10T08:15:45.387Z,100.00
2023-01-10T08:18:12.095Z,100.00
2023-01-10T08:20:38.727Z,100.00
2023-01-10T08:23:05.420Z,100.00
2023-01-10T08:25:33.429Z,100.00
2023-01-10T08:28:00.106Z,100.00
2023-01-10T08:30:26.801Z,100.00
2023-01-10T08:32:53.533Z,100.00
2023-01-10T08:35:20.207Z,100.00
2023-01-10T08:37:46.870Z,100.00
2023-01-10T08:40:13.723Z,100.00
2023-01-10T08:42:41.740Z,100.00
2023-01-10T08:45:09.438Z,100.00
2023-01-10T08:47:36.079Z,100.00
2023-01-10T08:50:02.817Z,100.00
2023-01-10T08:52:29.445Z,100.00
2023-01-10T08:54:56.088Z,100.00
2023-01-10T08:57:22.742Z,100.00
2023-01-10T08:59:50.783Z,100.00
2023-01-10T09:02:17.512Z,100.00
2023-01-10T09:04:44.213Z,100.00
2023-01-10T09:07:11.190Z,100.00
2023-01-10T09:09:37.858Z,100.00
2023-01-10T09:12:04.903Z,100.00
2023-01-10T09:14:31.629Z,100.00
2023-01-10T09:16:59.712Z,100.00
2023-01-10T09:19:26.354Z,100.00
2023-01-10T09:21:53.015Z,100.00
2023-01-10T09:24:19.624Z,100.00
2023-01-10T09:26:46.277Z,100.00
2023-01-10T09:29:13.026Z,100.00
2023-01-10T09:31:39.782Z,100.00
2023-01-10T09:34:07.846Z,100.00
2023-01-10T09:36:34.557Z,100.00
2023-01-10T09:39:01.235Z,100.00
2023-01-10T09:41:53.740Z,100.00
2023-01-10T09:44:33.607Z,100.00
2023-01-10T09:47:21.144Z,100.00
2023-01-10T09:50:00.127Z,100.00
2023-01-10T09:52:30.399Z,100.00
2023-01-10T09:55:00.026Z,100.00
2023-01-10T09:57:26.989Z,100.00
2023-01-10T09:59:53.877Z,100.00
2023-01-10T10:02:29.339Z,100.00
2023-01-10T10:05:08.502Z,100.00
2023-01-10T10:07:35.640Z,100.00
2023-01-10T10:10:02.430Z,100.00
2023-01-10T10:12:37.882Z,100.00
2023-01-10T10:15:20.155Z,100.00
2023-01-10T10:17:57.317Z,100.00
2023-01-10T10:20:39.600Z,100.00
2023-01-10T10:23:21.150Z,100.00
2023-01-10T10:26:00.997Z,100.00
2023-01-10T10:29:03.889Z,100.00
2023-01-10T10:32:01.222Z,100.00
2023-01-10T10:34:31.287Z,100.00
2023-01-10T10:37:03.524Z,100.00
2023-01-10T10:39:36.772Z,100.00
2023-01-10T10:42:10.766Z,100.00
2023-01-10T10:44:41.793Z,100.00
2023-01-10T10:47:15.082Z,100.00
2023-01-10T10:49:47.095Z,100.00
2023-01-10T10:52:22.791Z,100.00
2023-01-10T10:54:49.775Z,100.00
2023-01-10T10:57:16.808Z,100.00
2023-01-10T10:59:46.496Z,100.00
2023-01-10T11:02:24.246Z,100.00
2023-01-10T11:04:54.515Z,100.00
2023-01-10T11:07:23.380Z,100.00
2023-01-10T11:09:52.588Z,100.00
2023-01-10T11:12:25.865Z,100.00
2023-01-10T11:14:52.608Z,100.00
2023-01-10T11:17:22.273Z,100.00
2023-01-10T11:19:56.442Z,100.00
2023-01-10T11:22:25.426Z,100.00
2023-01-10T11:24:54.690Z,100.00
2023-01-10T11:27:24.205Z,100.00
2023-01-10T11:29:53.059Z,100.00
2023-01-10T11:32:23.435Z,100.00
2023-01-10T11:34:53.601Z,100.00
2023-01-10T11:37:22.714Z,100.00
2023-01-10T11:40:14.884Z,100.00
2023-01-10T11:42:42.316Z,100.00
2023-01-10T11:45:23.575Z,100.00
2023-01-10T11:47:54.805Z,100.00
2023-01-10T11:50:24.634Z,100.00
2023-01-10T11:52:52.050Z,100.00
2023-01-10T11:55:22.985Z,100.00
2023-01-10T11:58:02.879Z,100.00
2023-01-10T12:00:38.227Z,100.00
2023-01-10T12:03:17.100Z,100.00
2023-01-10T12:05:51.593Z,100.00
2023-01-10T12:08:31.340Z,100.00
2023-01-10T12:11:02.826Z,100.00
2023-01-10T12:13:30.668Z,100.00
2023-01-10T12:16:16.685Z,100.00
2023-01-10T12:18:43.372Z,100.00
2023-01-10T12:21:13.380Z,100.00
2023-01-10T12:23:42.180Z,100.00
2023-01-10T12:26:12.419Z,100.00
2023-01-10T12:28:43.019Z,100.00
2023-01-10T12:31:13.843Z,100.00
2023-01-10T12:33:44.679Z,100.00
2023-01-10T12:36:21.534Z,100.00
2023-01-10T12:38:57.573Z,100.00
2023-01-10T12:41:33.876Z,100.00
2023-01-10T12:44:02.953Z,100.00
2023-01-10T12:47:05.292Z,100.00
2023-01-10T12:49:29.138Z,100.00
2023-01-10T12:52:00.977Z,100.00
2023-01-10T12:54:30.302Z,100.00
2023-01-10T12:57:05.102Z,100.00
2023-01-10T12:59:38.106Z,100.00
2023-01-10T13:02:07.172Z,100.00
2023-01-10T13:04:37.804Z,100.00
2023-01-10T13:07:05.222Z,100.00
2023-01-10T13:09:32.994Z,100.00
2023-01-10T13:12:08.257Z,100.00
2023-01-10T13:14:42.357Z,100.00
2023-01-10T13:17:19.995Z,100.00
2023-01-10T13:20:21.962Z,100.00
2023-01-10T13:22:50.315Z,100.00
2023-01-10T13:25:22.818Z,100.00
2023-01-10T13:27:57.551Z,100.00
2023-01-10T13:30:28.474Z,100.00
2023-01-10T13:33:03.040Z,100.00
2023-01-10T13:35:39.777Z,100.00
2023-01-10T13:38:16.679Z,100.00
2023-01-10T13:40:57.194Z,100.00
2023-01-10T13:43:59.302Z,100.00
2023-01-10T13:46:46.964Z,100.00
2023-01-10T13:49:39.615Z,100.00
2023-01-10T13:52:30.775Z,100.00
2023-01-10T13:54:58.871Z,100.00
2023-01-10T13:57:51.937Z,100.00
2023-01-10T14:00:27.032Z,100.00
2023-01-10T14:02:53.749Z,100.00
2023-01-10T14:05:23.316Z,100.00
2023-01-10T14:07:52.296Z,100.00
2023-01-10T14:10:22.688Z,100.00
2023-01-10T14:12:52.523Z,100.00
2023-01-10T14:15:26.388Z,100.00
2023-01-10T14:18:05.630Z,100.00
2023-01-10T14:20:34.920Z,100.00
2023-01-10T14:23:05.607Z,100.00
2023-01-10T14:25:34.561Z,100.00
2023-01-10T14:28:02.300Z,100.00
2023-01-10T14:30:32.884Z,100.00
2023-01-10T14:33:07.009Z,100.00
2023-01-10T14:35:37.906Z,100.00
2023-01-10T14:38:06.944Z,100.00
2023-01-10T14:40:38.992Z,100.00
2023-01-10T14:43:09.480Z,100.00
2023-01-10T14:45:43.609Z,100.00
2023-01-10T14:48:28.527Z,100.00
2023-01-10T14:51:08.354Z,100.00
2023-01-10T14:53:35.315Z,100.00
2023-01-10T14:56:02.072Z,100.00
2023-01-10T14:58:28.831Z,100.00
2023-01-10T15:00:57.585Z,100.00
2023-01-10T15:03:25.923Z,100.00
2023-01-10T15:05:54.578Z,100.00
2023-01-10T15:08:24.181Z,100.00
2023-01-10T15:10:54.718Z,100.00
2023-01-10T15:13:25.029Z,100.00
2023-01-10T15:15:52.534Z,100.00
2023-01-10T15:18:30.156Z,100.00
2023-01-10T15:20:57.919Z,100.00
2023-01-10T15:23:24.551Z,100.00
2023-01-10T15:25:56.612Z,100.00
2023-01-10T15:28:23.386Z,100.00
2023-01-10T15:30:50.671Z,100.00
2023-01-10T15:33:21.759Z,100.00
2023-01-10T15:35:49.990Z,100.00
2023-01-10T15:38:20.694Z,100.00
2023-01-10T15:40:55.163Z,100.00
2023-01-10T15:43:25.200Z,100.00
2023-01-10T15:45:53.349Z,100.00
2023-01-10T15:48:28.747Z,100.00
2023-01-10T15:50:58.455Z,100.00
2023-01-10T15:53:57.098Z,100.00
2023-01-10T15:56:27.998Z,100.00
2023-01-10T15:58:56.630Z,100.00
2023-01-10T16:01:24.124Z,100.00
2023-01-10T16:03:53.506Z,100.00
2023-01-10T16:08:53.148Z,100.00
2023-01-10T16:11:23.376Z,100.00
2023-01-10T16:13:50.145Z,100.00
2023-01-10T16:16:19.739Z,100.00
2023-01-10T16:18:46.492Z,100.00
2023-01-10T16:21:13.869Z,100.00
2023-01-10T16:23:44.119Z,100.00
2023-01-10T16:26:10.862Z,100.00
2023-01-10T16:28:37.529Z,100.00
2023-01-10T16:31:06.768Z,100.00
2023-01-10T16:33:34.002Z,100.00
2023-01-10T16:36:01.154Z,100.00
2023-01-10T16:38:29.185Z,100.00
2023-01-10T16:40:59.952Z,100.00
2023-01-10T16:43:27.119Z,100.00
2023-01-10T16:45:55.238Z,100.00
2023-01-10T16:48:22.414Z,100.00
2023-01-10T16:50:49.215Z,100.00
2023-01-10T16:53:17.696Z,100.00
2023-01-10T16:55:46.162Z,100.00
2023-01-10T16:58:15.490Z,100.00
2023-01-10T17:00:44.877Z,100.00
2023-01-10T17:03:14.849Z,100.00
2023-01-10T17:05:42.008Z,100.00
2023-01-10T17:08:15.614Z,100.00
2023-01-10T17:10:43.216Z,100.00
2023-01-10T17:13:12.182Z,100.00
2023-01-10T17:15:40.260Z,100.00
2023-01-10T17:18:07.027Z,100.00
2023-01-10T17:20:33.704Z,100.00
2023-01-10T17:23:00.328Z,100.00
2023-01-10T17:25:26.971Z,100.00
2023-01-10T17:27:53.592Z,100.00
2023-01-10T17:30:20.383Z,100.00
2023-01-10T17:32:48.427Z,100.00
2023-01-10T17:35:15.081Z,100.00
2023-01-10T17:37:41.830Z,100.00
2023-01-10T17:40:10.385Z,100.00
2023-01-10T17:42:37.025Z,100.00
2023-01-10T17:45:04.310Z,100.00
2023-01-10T17:47:31.026Z,100.00
2023-01-10T17:49:59.074Z,100.00
2023-01-10T17:52:25.747Z,100.00
2023-01-10T17:54:52.429Z,100.00
2023-01-10T17:57:19.157Z,100.00
2023-01-10T17:59:45.779Z,100.00
2023-01-10T18:02:17.313Z,100.00
2023-01-10T18:04:44.579Z,100.00
2023-01-10T18:07:13.165Z,100.00
2023-01-10T18:09:40.204Z,100.00
2023-01-10T18:12:07.142Z,100.00
2023-01-10T18:14:33.885Z,100.00
2023-01-10T18:17:00.593Z,100.00
2023-01-10T18:19:27.463Z,100.00
2023-01-10T18:21:54.103Z,100.00
2023-01-10T18:24:22.164Z,100.00
2023-01-10T18:26:49.098Z,100.00
2023-01-10T18:29:15.717Z,100.00
2023-01-10T18:31:42.436Z,100.00
2023-01-10T18:34:09.449Z,100.00
2023-01-10T18:36:36.165Z,100.00
2023-01-10T18:39:03.088Z,100.00
2023-01-10T18:41:31.388Z,100.00
2023-01-10T18:43:58.027Z,100.00
2023-01-10T18:46:24.779Z,100.00
2023-01-10T18:48:52.267Z,100.00
2023-01-10T18:51:18.928Z,100.00
2023-01-10T18:53:46.024Z,100.00
2023-01-10T18:56:12.697Z,100.00
2023-01-10T18:58:42.088Z,100.00
2023-01-10T19:01:11.278Z,100.00
2023-01-10T19:03:39.018Z,100.00
2023-01-10T19:06:07.881Z,100.00
2023-01-10T19:08:34.773Z,100.00
2023-01-10T19:11:13.334Z,100.00
2023-01-10T19:13:43.176Z,100.00
2023-01-10T19:16:12.094Z,100.00
2023-01-10T19:18:38.867Z,100.00
2023-01-10T19:21:05.749Z,100.00
2023-01-10T19:23:33.001Z,100.00
2023-01-10T19:25:59.852Z,100.00
2023-01-10T19:28:29.553Z,100.00
2023-01-10T19:31:05.386Z,100.00
2023-01-10T19:33:32.394Z,100.00
2023-01-10T19:35:59.066Z,100.00
2023-01-10T19:38:25.787Z,100.00
2023-01-10T19:40:53.100Z,100.00
2023-01-10T19:43:19.849Z,100.00
2023-01-10T19:45:48.201Z,100.00
2023-01-10T19:48:16.396Z,100.00
2023-01-10T19:50:43.058Z,100.00
2023-01-10T19:53:09.771Z,100.00
2023-01-10T19:55:36.431Z,100.00
2023-01-10T19:58:03.096Z,100.00
2023-01-10T20:00:30.081Z,100.00
2023-01-10T20:02:56.865Z,100.00
2023-01-10T20:05:24.922Z,100.00
2023-01-10T20:07:51.964Z,99.33
2023-01-10T20:10:19.015Z,97.88
2023-01-10T20:12:45.756Z,96.74
2023-01-10T20:15:12.563Z,96.78
2023-01-10T20:17:39.235Z,96.84
2023-01-10T20:20:06.548Z,97.72
2023-01-10T20:22:34.576Z,96.94
2023-01-10T20:25:01.331Z,97.14
2023-01-10T20:27:28.855Z,97.38
2023-01-10T20:29:55.549Z,97.38
2023-01-10T20:32:22.318Z,98.21
2023-01-10T20:34:48.971Z,98.51
2023-01-10T20:37:15.639Z,98.73
2023-01-10T20:39:43.694Z,99.16
2023-01-10T20:42:10.332Z,99.51
2023-01-10T20:44:37.034Z,98.95
2023-01-10T20:47:03.725Z,98.17
2023-01-10T20:49:30.412Z,98.60
2023-01-10T20:51:57.064Z,98.09
2023-01-10T20:54:23.724Z,97.71
2023-01-10T20:56:51.712Z,97.27
2023-01-10T20:59:18.357Z,97.30
2023-01-10T21:01:45.116Z,97.07
2023-01-10T21:04:11.806Z,97.04
2023-01-10T21:06:38.473Z,97.76
2023-01-10T21:09:05.846Z,97.24
2023-01-10T21:11:41.063Z,97.17
2023-01-10T21:14:15.716Z,97.27
2023-01-10T21:16:42.368Z,96.22
2023-01-10T21:19:09.002Z,95.98
2023-01-10T21:21:35.608Z,95.95
2023-01-10T21:24:02.294Z,97.37
2023-01-10T21:26:28.931Z,97.33
2023-01-10T21:28:55.571Z,97.27
2023-01-10T21:31:23.596Z,97.34
2023-01-10T21:33:50.303Z,98.97
2023-01-10T21:36:17.563Z,97.94
2023-01-10T21:38:44.259Z,98.86
2023-01-10T21:41:13.030Z,98.23
2023-01-10T21:43:41.013Z,98.26
2023-01-10T21:46:09.097Z,97.70
2023-01-10T21:48:37.105Z,98.31
2023-01-10T21:51:03.920Z,99.44
2023-01-10T21:53:30.605Z,98.87
2023-01-10T21:55:58.087Z,99.18
2023-01-10T21:58:24.820Z,99.03
2023-01-10T22:00:55.171Z,99.14
2023-01-10T22:03:21.912Z,98.78
2023-01-10T22:05:50.028Z,98.38
2023-01-10T22:08:16.723Z,97.67
2023-01-10T22:10:43.372Z,98.91
2023-01-10T22:13:10.050Z,97.32
2023-01-10T22:15:36.981Z,98.11
2023-01-10T22:18:03.939Z,97.46
2023-01-10T22:20:30.970Z,96.45
2023-01-10T22:22:59.169Z,96.72
2023-01-10T22:25:25.826Z,96.61
2023-01-10T22:27:52.610Z,95.63
2023-01-10T22:30:19.484Z,95.96
2023-01-10T22:32:46.191Z,96.59
2023-01-10T22:35:12.958Z,96.73
2023-01-10T22:37:39.711Z,96.80
2023-01-10T22:40:09.385Z,97.02
2023-01-10T22:42:36.122Z,98.21
2023-01-10T22:45:02.926Z,97.14
2023-01-10T22:47:29.569Z,97.80
2023-01-10T22:49:56.262Z,96.92
2023-01-10T22:52:22.931Z,98.50
2023-01-10T22:54:49.694Z,99.65
2023-01-10T22:57:17.782Z,99.41
2023-01-10T22:59:44.419Z,97.70
2023-01-10T23:02:11.098Z,96.41
2023-01-10T23:04:37.785Z,97.50
2023-01-10T23:07:04.471Z,97.10
2023-01-10T23:09:31.201Z,96.72
2023-01-10T23:11:58.012Z,95.82
2023-01-10T23:14:26.266Z,96.11
2023-01-10T23:16:52.988Z,96.98
2023-01-10T23:19:19.693Z,98.02
2023-01-10T23:21:46.439Z,97.89
2023-01-10T23:24:13.148Z,96.17
2023-01-10T23:26:39.869Z,95.96
2023-01-10T23:29:06.525Z,95.87
2023-01-10T23:31:34.565Z,96.38
2023-01-10T23:34:01.299Z,94.02
2023-01-10T23:36:28.018Z,94.76
2023-01-10T23:38:54.688Z,95.03
2023-01-10T23:41:21.482Z,98.16
2023-01-10T23:43:49.054Z,98.71
2023-01-10T23:46:16.249Z,99.87
2023-01-10T23:48:44.431Z,99.89
2023-01-10T23:51:11.192Z,99.54
2023-01-10T23:53:37.877Z,99.04
2023-01-10T23:56:09.540Z,98.50
2023-01-10T23:58:36.561Z,98.39
